sensor_id;sensor_type;location;lat;lon;timestamp;temperature;humidity
2579;DHT22;1299;48.282;14.398;2023-12-14T00:00:26;7.10;99.90
2579;DHT22;1299;48.282;14.398;2023-12-14T00:02:53;7.00;99.90
2579;DHT22;1299;48.282;14.398;2023-12-14T00:05:21;7.20;99.90
2579;DHT22;1299;48.282;14.398;2023-12-14T00:07:47;7.20;99.90
2579;DHT22;1299;48.282;14.398;2023-12-14T00:10:14;7.30;99.90
2579;DHT22;1299;48.282;14.398;2023-12-14T00:12:43;7.40;99.90
2579;DHT22;1299;48.282;14.398;2023-12-14T00:15:13;7.60;99.90
2579;DHT22;1299;48.282;14.398;2023-12-14T00:17:40;7.50;99.90
2579;DHT22;1299;48.282;14.398;2023-12-14T00:20:13;7.50;99.90
2579;DHT22;1299;48.282;14.398;2023-12-14T00:22:45;7.60;99.90
2579;DHT22;1299;48.282;14.398;2023-12-14T00:25:13;7.60;99.90
2579;DHT22;1299;48.282;14.398;2023-12-14T00:27:40;7.50;99.90
2579;DHT22;1299;48.282;14.398;2023-12-14T00:30:12;7.40;99.90
2579;DHT22;1299;48.282;14.398;2023-12-14T00:32:57;7.50;99.90
2579;DHT22;1299;48.282;14.398;2023-12-14T00:35:23;7.20;99.90
2579;DHT22;1299;48.282;14.398;2023-12-14T00:37:50;7.20;99.90
2579;DHT22;1299;48.282;14.398;2023-12-14T00:40:17;7.20;99.90
2579;DHT22;1299;48.282;14.398;2023-12-14T00:42:50;7.30;99.90
2579;DHT22;1299;48.282;14.398;2023-12-14T00:45:28;7.10;99.90
2579;DHT22;1299;48.282;14.398;2023-12-14T00:47:55;7.10;99.90
2579;DHT22;1299;48.282;14.398;2023-12-14T00:50:23;7.00;99.90
2579;DHT22;1299;48.282;14.398;2023-12-14T00:52:51;7.10;99.90
2579;DHT22;1299;48.282;14.398;2023-12-14T00:55:19;7.20;99.90
2579;DHT22;1299;48.282;14.398;2023-12-14T00:57:46;7.40;99.90
2579;DHT22;1299;48.282;14.398;2023-12-14T01:00:14;7.40;99.90
2579;DHT22;1299;48.282;14.398;2023-12-14T01:02:43;7.30;99.90
2579;DHT22;1299;48.282;14.398;2023-12-14T01:05:11;7.30;99.90
2579;DHT22;1299;48.282;14.398;2023-12-14T01:07:38;7.20;99.90
2579;DHT22;1299;48.282;14.398;2023-12-14T01:10:07;7.20;99.90
2579;DHT22;1299;48.282;14.398;2023-12-14T01:12:34;7.10;99.90
2579;DHT22;1299;48.282;14.398;2023-12-14T01:15:01;6.90;99.90
2579;DHT22;1299;48.282;14.398;2023-12-14T01:17:29;6.80;99.90
2579;DHT22;1299;48.282;14.398;2023-12-14T01:19:57;6.90;99.90
2579;DHT22;1299;48.282;14.398;2023-12-14T01:22:24;6.70;99.90
2579;DHT22;1299;48.282;14.398;2023-12-14T01:24:53;6.70;99.90
2579;DHT22;1299;48.282;14.398;2023-12-14T01:27:20;6.80;99.90
2579;DHT22;1299;48.282;14.398;2023-12-14T01:29:47;7.00;99.90
2579;DHT22;1299;48.282;14.398;2023-12-14T01:32:14;7.20;99.90
2579;DHT22;1299;48.282;14.398;2023-12-14T01:34:43;7.30;99.90
2579;DHT22;1299;48.282;14.398;2023-12-14T01:37:12;7.40;99.90
2579;DHT22;1299;48.282;14.398;2023-12-14T01:39:41;7.40;99.90
2579;DHT22;1299;48.282;14.398;2023-12-14T01:42:08;7.40;99.90
2579;DHT22;1299;48.282;14.398;2023-12-14T01:44:36;7.00;99.90
2579;DHT22;1299;48.282;14.398;2023-12-14T01:47:03;7.10;99.90
2579;DHT22;1299;48.282;14.398;2023-12-14T01:49:30;7.10;99.90
2579;DHT22;1299;48.282;14.398;2023-12-14T01:51:56;7.30;99.90
2579;DHT22;1299;48.282;14.398;2023-12-14T01:54:24;7.30;99.90
2579;DHT22;1299;48.282;14.398;2023-12-14T01:56:52;7.50;99.90
2579;DHT22;1299;48.282;14.398;2023-12-14T01:59:19;7.60;99.90
2579;DHT22;1299;48.282;14.398;2023-12-14T02:01:52;7.70;99.90
2579;DHT22;1299;48.282;14.398;2023-12-14T02:04:19;7.70;99.90
2579;DHT22;1299;48.282;14.398;2023-12-14T02:06:48;7.60;99.90
2579;DHT22;1299;48.282;14.398;2023-12-14T02:09:15;7.80;99.90
2579;DHT22;1299;48.282;14.398;2023-12-14T02:11:45;7.80;99.90
2579;DHT22;1299;48.282;14.398;2023-12-14T02:14:12;7.50;99.90
2579;DHT22;1299;48.282;14.398;2023-12-14T02:16:39;7.60;99.90
2579;DHT22;1299;48.282;14.398;2023-12-14T02:19:06;7.40;99.90
2579;DHT22;1299;48.282;14.398;2023-12-14T02:21:34;7.60;99.90
2579;DHT22;1299;48.282;14.398;2023-12-14T02:24:05;7.60;99.90
2579;DHT22;1299;48.282;14.398;2023-12-14T02:26:32;7.40;99.90
2579;DHT22;1299;48.282;14.398;2023-12-14T02:29:00;7.50;99.90
2579;DHT22;1299;48.282;14.398;2023-12-14T02:31:26;7.80;99.90
2579;DHT22;1299;48.282;14.398;2023-12-14T02:33:53;7.70;99.90
2579;DHT22;1299;48.282;14.398;2023-12-14T02:36:20;7.80;99.90
2579;DHT22;1299;48.282;14.398;2023-12-14T02:38:47;7.70;99.90
2579;DHT22;1299;48.282;14.398;2023-12-14T02:41:16;7.80;99.90
2579;DHT22;1299;48.282;14.398;2023-12-14T02:43:43;7.80;99.90
2579;DHT22;1299;48.282;14.398;2023-12-14T02:46:13;7.90;99.90
2579;DHT22;1299;48.282;14.398;2023-12-14T02:48:43;7.90;99.90
2579;DHT22;1299;48.282;14.398;2023-12-14T02:51:13;7.90;99.90
2579;DHT22;1299;48.282;14.398;2023-12-14T02:53:41;7.90;99.90
2579;DHT22;1299;48.282;14.398;2023-12-14T02:56:09;7.90;99.90
2579;DHT22;1299;48.282;14.398;2023-12-14T02:58:37;7.90;99.90
2579;DHT22;1299;48.282;14.398;2023-12-14T03:01:05;7.90;99.90
2579;DHT22;1299;48.282;14.398;2023-12-14T03:03:39;7.80;99.90
2579;DHT22;1299;48.282;14.398;2023-12-14T03:06:15;7.90;99.90
2579;DHT22;1299;48.282;14.398;2023-12-14T03:08:42;8.00;99.90
2579;DHT22;1299;48.282;14.398;2023-12-14T03:11:20;8.10;99.90
2579;DHT22;1299;48.282;14.398;2023-12-14T03:13:57;8.10;99.90
2579;DHT22;1299;48.282;14.398;2023-12-14T03:16:24;8.10;99.90
2579;DHT22;1299;48.282;14.398;2023-12-14T03:18:51;8.10;99.90
2579;DHT22;1299;48.282;14.398;2023-12-14T03:21:19;8.10;99.90
2579;DHT22;1299;48.282;14.398;2023-12-14T03:23:46;8.00;99.90
2579;DHT22;1299;48.282;14.398;2023-12-14T03:26:15;8.00;99.90
2579;DHT22;1299;48.282;14.398;2023-12-14T03:28:42;8.10;99.90
2579;DHT22;1299;48.282;14.398;2023-12-14T03:31:12;8.00;99.90
2579;DHT22;1299;48.282;14.398;2023-12-14T03:33:41;7.90;99.90
2579;DHT22;1299;48.282;14.398;2023-12-14T03:36:10;8.10;99.90
2579;DHT22;1299;48.282;14.398;2023-12-14T03:38:38;8.10;99.90
2579;DHT22;1299;48.282;14.398;2023-12-14T03:41:06;8.00;99.90
2579;DHT22;1299;48.282;14.398;2023-12-14T03:43:33;8.10;99.90
2579;DHT22;1299;48.282;14.398;2023-12-14T03:46:00;8.20;99.90
2579;DHT22;1299;48.282;14.398;2023-12-14T03:48:28;8.10;99.90
2579;DHT22;1299;48.282;14.398;2023-12-14T03:50:55;8.20;99.90
2579;DHT22;1299;48.282;14.398;2023-12-14T03:53:22;8.00;99.90
2579;DHT22;1299;48.282;14.398;2023-12-14T03:55:49;8.10;99.90
2579;DHT22;1299;48.282;14.398;2023-12-14T03:58:16;7.90;99.90
2579;DHT22;1299;48.282;14.398;2023-12-14T04:00:43;7.80;99.90
2579;DHT22;1299;48.282;14.398;2023-12-14T04:03:12;8.00;99.90
2579;DHT22;1299;48.282;14.398;2023-12-14T04:05:41;7.90;99.90
2579;DHT22;1299;48.282;14.398;2023-12-14T04:08:10;7.80;99.90
2579;DHT22;1299;48.282;14.398;2023-12-14T04:10:38;7.80;99.90
2579;DHT22;1299;48.282;14.398;2023-12-14T04:13:05;7.90;99.90
2579;DHT22;1299;48.282;14.398;2023-12-14T04:15:32;7.70;99.90
2579;DHT22;1299;48.282;14.398;2023-12-14T04:17:59;7.80;99.90
2579;DHT22;1299;48.282;14.398;2023-12-14T04:20:26;7.90;99.90
2579;DHT22;1299;48.282;14.398;2023-12-14T04:22:55;7.90;99.90
2579;DHT22;1299;48.282;14.398;2023-12-14T04:25:22;7.90;99.90
2579;DHT22;1299;48.282;14.398;2023-12-14T04:27:50;8.00;99.90
2579;DHT22;1299;48.282;14.398;2023-12-14T04:30:17;8.00;99.90
2579;DHT22;1299;48.282;14.398;2023-12-14T04:32:44;8.00;99.90
2579;DHT22;1299;48.282;14.398;2023-12-14T04:35:14;7.80;99.90
2579;DHT22;1299;48.282;14.398;2023-12-14T04:37:42;7.90;99.90
2579;DHT22;1299;48.282;14.398;2023-12-14T04:40:20;7.80;99.90
2579;DHT22;1299;48.282;14.398;2023-12-14T04:42:47;7.80;99.90
2579;DHT22;1299;48.282;14.398;2023-12-14T04:45:14;8.00;99.90
2579;DHT22;1299;48.282;14.398;2023-12-14T04:47:49;7.60;99.90
2579;DHT22;1299;48.282;14.398;2023-12-14T04:50:17;7.50;99.90
2579;DHT22;1299;48.282;14.398;2023-12-14T04:52:45;7.60;99.90
2579;DHT22;1299;48.282;14.398;2023-12-14T04:55:12;7.70;99.90
2579;DHT22;1299;48.282;14.398;2023-12-14T04:57:41;7.90;99.90
2579;DHT22;1299;48.282;14.398;2023-12-14T05:00:10;8.10;99.90
2579;DHT22;1299;48.282;14.398;2023-12-14T05:02:37;7.90;99.90
2579;DHT22;1299;48.282;14.398;2023-12-14T05:05:05;7.90;99.90
2579;DHT22;1299;48.282;14.398;2023-12-14T05:07:33;7.90;99.90
2579;DHT22;1299;48.282;14.398;2023-12-14T05:09:59;7.90;99.90
2579;DHT22;1299;48.282;14.398;2023-12-14T05:12:27;7.90;99.90
2579;DHT22;1299;48.282;14.398;2023-12-14T05:14:58;7.80;99.90
2579;DHT22;1299;48.282;14.398;2023-12-14T05:17:25;7.80;99.90
2579;DHT22;1299;48.282;14.398;2023-12-14T05:19:52;7.90;99.90
2579;DHT22;1299;48.282;14.398;2023-12-14T05:22:19;7.80;99.90
2579;DHT22;1299;48.282;14.398;2023-12-14T05:24:47;7.90;99.90
2579;DHT22;1299;48.282;14.398;2023-12-14T05:27:14;8.00;99.90
2579;DHT22;1299;48.282;14.398;2023-12-14T05:29:41;8.00;99.90
2579;DHT22;1299;48.282;14.398;2023-12-14T05:32:09;8.00;99.90
2579;DHT22;1299;48.282;14.398;2023-12-14T05:34:37;8.00;99.90
2579;DHT22;1299;48.282;14.398;2023-12-14T05:37:04;8.00;99.90
2579;DHT22;1299;48.282;14.398;2023-12-14T05:39:32;7.90;99.90
2579;DHT22;1299;48.282;14.398;2023-12-14T05:41:59;8.00;99.90
2579;DHT22;1299;48.282;14.398;2023-12-14T05:44:41;7.90;99.90
2579;DHT22;1299;48.282;14.398;2023-12-14T05:47:12;8.00;99.90
2579;DHT22;1299;48.282;14.398;2023-12-14T05:49:50;7.90;99.90
2579;DHT22;1299;48.282;14.398;2023-12-14T05:52:17;8.10;99.90
2579;DHT22;1299;48.282;14.398;2023-12-14T05:54:47;8.00;99.90
2579;DHT22;1299;48.282;14.398;2023-12-14T05:57:14;8.10;99.90
2579;DHT22;1299;48.282;14.398;2023-12-14T05:59:42;8.00;99.90
2579;DHT22;1299;48.282;14.398;2023-12-14T06:02:09;8.00;99.90
2579;DHT22;1299;48.282;14.398;2023-12-14T06:04:37;8.00;99.90
2579;DHT22;1299;48.282;14.398;2023-12-14T06:07:10;8.00;99.90
2579;DHT22;1299;48.282;14.398;2023-12-14T06:09:43;8.00;99.90
2579;DHT22;1299;48.282;14.398;2023-12-14T06:12:10;8.10;99.90
2579;DHT22;1299;48.282;14.398;2023-12-14T06:14:38;8.10;99.90
2579;DHT22;1299;48.282;14.398;2023-12-14T06:17:08;8.10;99.90
2579;DHT22;1299;48.282;14.398;2023-12-14T06:19:37;7.80;99.90
2579;DHT22;1299;48.282;14.398;2023-12-14T06:22:07;7.90;99.90
2579;DHT22;1299;48.282;14.398;2023-12-14T06:24:35;7.80;99.90
2579;DHT22;1299;48.282;14.398;2023-12-14T06:27:03;7.80;99.90
2579;DHT22;1299;48.282;14.398;2023-12-14T06:29:30;7.90;99.90
2579;DHT22;1299;48.282;14.398;2023-12-14T06:31:57;8.00;99.90
2579;DHT22;1299;48.282;14.398;2023-12-14T06:34:25;7.80;99.90
2579;DHT22;1299;48.282;14.398;2023-12-14T06:37:05;7.80;99.90
2579;DHT22;1299;48.282;14.398;2023-12-14T06:39:40;7.80;99.90
2579;DHT22;1299;48.282;14.398;2023-12-14T06:42:18;7.90;99.90
2579;DHT22;1299;48.282;14.398;2023-12-14T06:44:45;7.90;99.90
2579;DHT22;1299;48.282;14.398;2023-12-14T06:47:20;7.80;99.90
2579;DHT22;1299;48.282;14.398;2023-12-14T06:49:53;7.90;99.90
2579;DHT22;1299;48.282;14.398;2023-12-14T06:52:23;7.80;99.90
2579;DHT22;1299;48.282;14.398;2023-12-14T06:54:52;7.90;99.90
2579;DHT22;1299;48.282;14.398;2023-12-14T06:57:23;8.00;99.90
2579;DHT22;1299;48.282;14.398;2023-12-14T06:59:50;8.00;99.90
2579;DHT22;1299;48.282;14.398;2023-12-14T07:02:17;8.00;99.90
2579;DHT22;1299;48.282;14.398;2023-12-14T07:04:44;8.00;99.90
2579;DHT22;1299;48.282;14.398;2023-12-14T07:07:19;8.00;99.90
2579;DHT22;1299;48.282;14.398;2023-12-14T07:09:54;7.90;99.90
2579;DHT22;1299;48.282;14.398;2023-12-14T07:12:22;7.90;99.90
2579;DHT22;1299;48.282;14.398;2023-12-14T07:14:57;7.70;99.90
2579;DHT22;1299;48.282;14.398;2023-12-14T07:17:29;7.70;99.90
2579;DHT22;1299;48.282;14.398;2023-12-14T07:20:06;7.80;99.90
2579;DHT22;1299;48.282;14.398;2023-12-14T07:22:46;7.70;99.90
2579;DHT22;1299;48.282;14.398;2023-12-14T07:25:27;7.80;99.90
2579;DHT22;1299;48.282;14.398;2023-12-14T07:27:59;7.60;99.90
2579;DHT22;1299;48.282;14.398;2023-12-14T07:30:25;7.70;99.90
2579;DHT22;1299;48.282;14.398;2023-12-14T07:33:08;7.70;99.90
2579;DHT22;1299;48.282;14.398;2023-12-14T07:35:48;7.60;99.90
2579;DHT22;1299;48.282;14.398;2023-12-14T07:38:15;7.60;99.90
2579;DHT22;1299;48.282;14.398;2023-12-14T07:40:53;7.60;99.90
2579;DHT22;1299;48.282;14.398;2023-12-14T07:43:20;7.60;99.90
2579;DHT22;1299;48.282;14.398;2023-12-14T07:45:55;7.60;99.90
2579;DHT22;1299;48.282;14.398;2023-12-14T07:48:24;7.60;99.90
2579;DHT22;1299;48.282;14.398;2023-12-14T07:50:55;7.60;99.90
2579;DHT22;1299;48.282;14.398;2023-12-14T07:53:24;7.60;99.90
2579;DHT22;1299;48.282;14.398;2023-12-14T07:55:53;7.50;99.90
2579;DHT22;1299;48.282;14.398;2023-12-14T07:58:20;7.40;99.90
2579;DHT22;1299;48.282;14.398;2023-12-14T08:00:47;7.40;99.90
2579;DHT22;1299;48.282;14.398;2023-12-14T08:03:14;7.40;99.90
2579;DHT22;1299;48.282;14.398;2023-12-14T08:05:41;7.60;99.90
2579;DHT22;1299;48.282;14.398;2023-12-14T08:08:09;7.60;99.90
2579;DHT22;1299;48.282;14.398;2023-12-14T08:10:38;7.50;99.90
2579;DHT22;1299;48.282;14.398;2023-12-14T08:13:12;7.50;99.90
2579;DHT22;1299;48.282;14.398;2023-12-14T08:15:47;7.40;99.90
2579;DHT22;1299;48.282;14.398;2023-12-14T08:18:14;7.40;99.90
2579;DHT22;1299;48.282;14.398;2023-12-14T08:20:41;7.50;99.90
2579;DHT22;1299;48.282;14.398;2023-12-14T08:23:15;7.30;99.90
2579;DHT22;1299;48.282;14.398;2023-12-14T08:25:55;7.30;99.90
2579;DHT22;1299;48.282;14.398;2023-12-14T08:28:32;7.20;99.90
2579;DHT22;1299;48.282;14.398;2023-12-14T08:30:58;7.10;99.90
2579;DHT22;1299;48.282;14.398;2023-12-14T08:33:30;7.20;99.90
2579;DHT22;1299;48.282;14.398;2023-12-14T08:35:57;7.10;99.90
2579;DHT22;1299;48.282;14.398;2023-12-14T08:38:26;7.10;99.90
2579;DHT22;1299;48.282;14.398;2023-12-14T08:41:05;7.10;99.90
2579;DHT22;1299;48.282;14.398;2023-12-14T08:43:35;7.10;99.90
2579;DHT22;1299;48.282;14.398;2023-12-14T08:46:04;7.20;99.90
2579;DHT22;1299;48.282;14.398;2023-12-14T08:51:54;7.20;99.90
2579;DHT22;1299;48.282;14.398;2023-12-14T08:54:26;7.20;99.90
2579;DHT22;1299;48.282;14.398;2023-12-14T08:56:59;7.30;99.90
2579;DHT22;1299;48.282;14.398;2023-12-14T08:59:37;7.30;99.90
2579;DHT22;1299;48.282;14.398;2023-12-14T09:02:09;7.40;99.90
2579;DHT22;1299;48.282;14.398;2023-12-14T09:04:43;7.50;99.90
2579;DHT22;1299;48.282;14.398;2023-12-14T09:07:42;7.50;99.90
2579;DHT22;1299;48.282;14.398;2023-12-14T09:10:19;7.50;99.90
2579;DHT22;1299;48.282;14.398;2023-12-14T09:19:34;7.40;99.90
2579;DHT22;1299;48.282;14.398;2023-12-14T09:22:16;7.30;99.90
2579;DHT22;1299;48.282;14.398;2023-12-14T09:24:43;7.30;99.90
2579;DHT22;1299;48.282;14.398;2023-12-14T09:27:17;7.20;99.90
2579;DHT22;1299;48.282;14.398;2023-12-14T09:29:45;7.20;99.90
2579;DHT22;1299;48.282;14.398;2023-12-14T09:32:13;7.10;99.90
2579;DHT22;1299;48.282;14.398;2023-12-14T09:34:41;7.00;99.90
2579;DHT22;1299;48.282;14.398;2023-12-14T09:37:27;7.00;99.90
2579;DHT22;1299;48.282;14.398;2023-12-14T09:39:55;7.00;99.90
2579;DHT22;1299;48.282;14.398;2023-12-14T09:42:23;7.00;99.90
2579;DHT22;1299;48.282;14.398;2023-12-14T09:44:52;7.00;99.90
2579;DHT22;1299;48.282;14.398;2023-12-14T09:47:19;6.90;99.90
2579;DHT22;1299;48.282;14.398;2023-12-14T09:49:49;7.00;99.90
2579;DHT22;1299;48.282;14.398;2023-12-14T09:52:19;6.90;99.90
2579;DHT22;1299;48.282;14.398;2023-12-14T09:54:46;6.90;99.90
2579;DHT22;1299;48.282;14.398;2023-12-14T09:57:13;6.90;99.90
2579;DHT22;1299;48.282;14.398;2023-12-14T09:59:41;6.90;99.90
2579;DHT22;1299;48.282;14.398;2023-12-14T10:02:28;7.00;99.90
2579;DHT22;1299;48.282;14.398;2023-12-14T10:04:57;7.00;99.90
2579;DHT22;1299;48.282;14.398;2023-12-14T10:07:24;7.00;99.90
2579;DHT22;1299;48.282;14.398;2023-12-14T10:10:09;7.00;99.90
2579;DHT22;1299;48.282;14.398;2023-12-14T10:12:50;7.00;99.90
2579;DHT22;1299;48.282;14.398;2023-12-14T10:15:17;7.00;99.90
2579;DHT22;1299;48.282;14.398;2023-12-14T10:17:45;7.00;99.90
2579;DHT22;1299;48.282;14.398;2023-12-14T10:20:20;7.20;99.90
2579;DHT22;1299;48.282;14.398;2023-12-14T10:22:55;7.30;99.90
2579;DHT22;1299;48.282;14.398;2023-12-14T10:25:32;7.20;99.90
2579;DHT22;1299;48.282;14.398;2023-12-14T10:28:00;7.30;99.90
2579;DHT22;1299;48.282;14.398;2023-12-14T10:30:28;7.30;99.90
2579;DHT22;1299;48.282;14.398;2023-12-14T10:33:03;7.30;99.90
2579;DHT22;1299;48.282;14.398;2023-12-14T10:35:36;7.20;99.90
2579;DHT22;1299;48.282;14.398;2023-12-14T10:38:05;7.30;99.90
2579;DHT22;1299;48.282;14.398;2023-12-14T10:40:36;7.40;99.90
2579;DHT22;1299;48.282;14.398;2023-12-14T10:43:06;7.40;99.90
2579;DHT22;1299;48.282;14.398;2023-12-14T10:45:35;7.50;99.90
2579;DHT22;1299;48.282;14.398;2023-12-14T10:48:03;7.40;99.90
2579;DHT22;1299;48.282;14.398;2023-12-14T10:50:31;7.40;99.90
2579;DHT22;1299;48.282;14.398;2023-12-14T10:53:01;7.50;99.90
2579;DHT22;1299;48.282;14.398;2023-12-14T10:55:33;7.50;99.90
2579;DHT22;1299;48.282;14.398;2023-12-14T10:58:00;7.40;99.90
2579;DHT22;1299;48.282;14.398;2023-12-14T11:00:27;7.50;99.90
2579;DHT22;1299;48.282;14.398;2023-12-14T11:02:57;7.50;99.90
2579;DHT22;1299;48.282;14.398;2023-12-14T11:05:27;7.50;99.90
2579;DHT22;1299;48.282;14.398;2023-12-14T11:07:59;7.60;99.90
2579;DHT22;1299;48.282;14.398;2023-12-14T11:10:37;7.50;99.90
2579;DHT22;1299;48.282;14.398;2023-12-14T11:13:07;7.30;99.90
2579;DHT22;1299;48.282;14.398;2023-12-14T11:15:37;7.30;99.90
2579;DHT22;1299;48.282;14.398;2023-12-14T11:18:24;7.30;99.90
2579;DHT22;1299;48.282;14.398;2023-12-14T11:20:53;7.40;99.90
2579;DHT22;1299;48.282;14.398;2023-12-14T11:23:32;7.40;99.90
2579;DHT22;1299;48.282;14.398;2023-12-14T11:26:03;7.30;99.90
2579;DHT22;1299;48.282;14.398;2023-12-14T11:31:16;7.40;99.90
2579;DHT22;1299;48.282;14.398;2023-12-14T11:33:43;7.40;99.90
2579;DHT22;1299;48.282;14.398;2023-12-14T11:36:14;7.60;99.90
2579;DHT22;1299;48.282;14.398;2023-12-14T11:38:41;7.60;99.90
2579;DHT22;1299;48.282;14.398;2023-12-14T11:41:12;7.70;99.90
2579;DHT22;1299;48.282;14.398;2023-12-14T11:43:40;7.80;99.90
2579;DHT22;1299;48.282;14.398;2023-12-14T11:46:07;7.80;99.90
2579;DHT22;1299;48.282;14.398;2023-12-14T11:48:34;7.80;99.90
2579;DHT22;1299;48.282;14.398;2023-12-14T11:51:01;7.90;99.90
2579;DHT22;1299;48.282;14.398;2023-12-14T11:53:29;7.90;99.90
2579;DHT22;1299;48.282;14.398;2023-12-14T11:55:56;7.80;99.90
2579;DHT22;1299;48.282;14.398;2023-12-14T11:58:25;7.90;99.90
2579;DHT22;1299;48.282;14.398;2023-12-14T12:00:52;7.90;99.90
2579;DHT22;1299;48.282;14.398;2023-12-14T12:03:20;7.90;99.90
2579;DHT22;1299;48.282;14.398;2023-12-14T12:05:49;8.00;99.90
2579;DHT22;1299;48.282;14.398;2023-12-14T12:08:17;8.00;99.90
2579;DHT22;1299;48.282;14.398;2023-12-14T12:10:47;8.10;99.90
2579;DHT22;1299;48.282;14.398;2023-12-14T12:13:24;8.10;99.90
2579;DHT22;1299;48.282;14.398;2023-12-14T12:16:03;8.10;99.90
2579;DHT22;1299;48.282;14.398;2023-12-14T12:18:32;8.10;99.90
2579;DHT22;1299;48.282;14.398;2023-12-14T12:20:59;8.10;99.90
2579;DHT22;1299;48.282;14.398;2023-12-14T12:23:29;8.40;99.90
2579;DHT22;1299;48.282;14.398;2023-12-14T12:25:57;8.30;99.90
2579;DHT22;1299;48.282;14.398;2023-12-14T12:28:26;8.50;99.90
2579;DHT22;1299;48.282;14.398;2023-12-14T12:30:53;8.60;99.90
2579;DHT22;1299;48.282;14.398;2023-12-14T12:33:20;8.70;99.90
2579;DHT22;1299;48.282;14.398;2023-12-14T12:35:49;8.70;99.90
2579;DHT22;1299;48.282;14.398;2023-12-14T12:38:17;8.60;99.90
2579;DHT22;1299;48.282;14.398;2023-12-14T12:40:44;8.60;99.90
2579;DHT22;1299;48.282;14.398;2023-12-14T12:43:20;8.70;99.90
2579;DHT22;1299;48.282;14.398;2023-12-14T12:45:49;8.50;99.90
2579;DHT22;1299;48.282;14.398;2023-12-14T12:48:16;8.50;99.90
2579;DHT22;1299;48.282;14.398;2023-12-14T12:50:43;8.60;99.90
2579;DHT22;1299;48.282;14.398;2023-12-14T12:53:10;8.60;99.90
2579;DHT22;1299;48.282;14.398;2023-12-14T12:55:40;8.60;99.90
2579;DHT22;1299;48.282;14.398;2023-12-14T12:58:07;8.70;99.90
2579;DHT22;1299;48.282;14.398;2023-12-14T13:00:35;8.60;99.90
2579;DHT22;1299;48.282;14.398;2023-12-14T13:05:32;8.70;99.90
2579;DHT22;1299;48.282;14.398;2023-12-14T13:08:05;8.80;99.90
2579;DHT22;1299;48.282;14.398;2023-12-14T13:15:43;9.00;99.90
2579;DHT22;1299;48.282;14.398;2023-12-14T13:20:54;9.20;99.90
2579;DHT22;1299;48.282;14.398;2023-12-14T13:23:21;9.20;99.90
2579;DHT22;1299;48.282;14.398;2023-12-14T13:25:55;9.20;99.90
2579;DHT22;1299;48.282;14.398;2023-12-14T13:28:23;9.30;99.90
2579;DHT22;1299;48.282;14.398;2023-12-14T13:30:54;9.40;99.90
2579;DHT22;1299;48.282;14.398;2023-12-14T13:33:34;9.30;99.90
2579;DHT22;1299;48.282;14.398;2023-12-14T13:36:15;9.30;99.90
2579;DHT22;1299;48.282;14.398;2023-12-14T13:38:52;9.30;99.90
2579;DHT22;1299;48.282;14.398;2023-12-14T13:41:27;9.30;99.90
2579;DHT22;1299;48.282;14.398;2023-12-14T13:44:05;9.30;99.90
2579;DHT22;1299;48.282;14.398;2023-12-14T13:46:34;9.30;99.90
2579;DHT22;1299;48.282;14.398;2023-12-14T13:49:10;9.40;99.90
2579;DHT22;1299;48.282;14.398;2023-12-14T13:52:05;9.50;99.90
2579;DHT22;1299;48.282;14.398;2023-12-14T13:54:33;9.40;99.90
2579;DHT22;1299;48.282;14.398;2023-12-14T13:57:07;9.30;99.90
2579;DHT22;1299;48.282;14.398;2023-12-14T13:59:34;9.20;99.90
2579;DHT22;1299;48.282;14.398;2023-12-14T14:02:04;9.20;99.90
2579;DHT22;1299;48.282;14.398;2023-12-14T14:04:43;9.10;99.90
2579;DHT22;1299;48.282;14.398;2023-12-14T14:07:16;9.10;99.90
2579;DHT22;1299;48.282;14.398;2023-12-14T14:09:57;9.10;99.90
2579;DHT22;1299;48.282;14.398;2023-12-14T14:12:24;9.00;99.90
2579;DHT22;1299;48.282;14.398;2023-12-14T14:14:51;9.10;99.90
2579;DHT22;1299;48.282;14.398;2023-12-14T14:17:26;9.00;99.90
2579;DHT22;1299;48.282;14.398;2023-12-14T14:20:07;9.00;99.90
2579;DHT22;1299;48.282;14.398;2023-12-14T14:22:40;9.10;99.90
2579;DHT22;1299;48.282;14.398;2023-12-14T14:25:25;9.00;99.90
2579;DHT22;1299;48.282;14.398;2023-12-14T14:27:54;9.00;99.90
2579;DHT22;1299;48.282;14.398;2023-12-14T14:30:27;9.10;99.90
2579;DHT22;1299;48.282;14.398;2023-12-14T14:33:05;9.20;99.90
2579;DHT22;1299;48.282;14.398;2023-12-14T14:35:32;9.10;99.90
2579;DHT22;1299;48.282;14.398;2023-12-14T14:38:12;9.00;99.90
2579;DHT22;1299;48.282;14.398;2023-12-14T14:40:48;9.10;99.90
2579;DHT22;1299;48.282;14.398;2023-12-14T14:43:30;9.10;99.90
2579;DHT22;1299;48.282;14.398;2023-12-14T14:45:59;9.10;99.90
2579;DHT22;1299;48.282;14.398;2023-12-14T14:48:33;9.10;99.90
2579;DHT22;1299;48.282;14.398;2023-12-14T14:51:00;9.00;99.90
2579;DHT22;1299;48.282;14.398;2023-12-14T14:53:33;9.10;99.90
2579;DHT22;1299;48.282;14.398;2023-12-14T14:56:03;9.10;99.90
2579;DHT22;1299;48.282;14.398;2023-12-14T14:58:38;8.80;99.90
2579;DHT22;1299;48.282;14.398;2023-12-14T15:01:11;8.80;99.90
2579;DHT22;1299;48.282;14.398;2023-12-14T15:06:34;8.70;99.90
2579;DHT22;1299;48.282;14.398;2023-12-14T15:30:14;8.40;99.90
2579;DHT22;1299;48.282;14.398;2023-12-14T15:32:48;8.40;99.90
2579;DHT22;1299;48.282;14.398;2023-12-14T15:35:16;8.20;99.90
2579;DHT22;1299;48.282;14.398;2023-12-14T15:37:43;8.20;99.90
2579;DHT22;1299;48.282;14.398;2023-12-14T15:40:12;8.20;99.90
2579;DHT22;1299;48.282;14.398;2023-12-14T15:42:40;8.20;99.90
2579;DHT22;1299;48.282;14.398;2023-12-14T15:45:09;8.30;99.90
2579;DHT22;1299;48.282;14.398;2023-12-14T15:47:38;8.10;99.90
2579;DHT22;1299;48.282;14.398;2023-12-14T15:50:09;8.10;99.90
2579;DHT22;1299;48.282;14.398;2023-12-14T15:52:50;7.90;99.90
2579;DHT22;1299;48.282;14.398;2023-12-14T15:55:18;7.90;99.90
2579;DHT22;1299;48.282;14.398;2023-12-14T15:57:47;7.90;99.90
2579;DHT22;1299;48.282;14.398;2023-12-14T16:00:16;7.90;99.90
2579;DHT22;1299;48.282;14.398;2023-12-14T16:02:54;8.00;99.90
2579;DHT22;1299;48.282;14.398;2023-12-14T16:05:25;8.00;99.90
2579;DHT22;1299;48.282;14.398;2023-12-14T16:08:15;8.10;99.90
2579;DHT22;1299;48.282;14.398;2023-12-14T16:10:43;8.10;99.90
2579;DHT22;1299;48.282;14.398;2023-12-14T16:13:16;8.00;99.90
2579;DHT22;1299;48.282;14.398;2023-12-14T16:15:43;8.10;99.90
2579;DHT22;1299;48.282;14.398;2023-12-14T16:18:21;8.10;99.90
2579;DHT22;1299;48.282;14.398;2023-12-14T16:21:01;8.10;99.90
2579;DHT22;1299;48.282;14.398;2023-12-14T16:23:30;8.10;99.90
2579;DHT22;1299;48.282;14.398;2023-12-14T16:26:19;8.20;99.90
2579;DHT22;1299;48.282;14.398;2023-12-14T16:29:21;8.20;99.90
2579;DHT22;1299;48.282;14.398;2023-12-14T16:31:49;8.10;99.90
2579;DHT22;1299;48.282;14.398;2023-12-14T16:34:23;8.20;99.90
2579;DHT22;1299;48.282;14.398;2023-12-14T16:37:05;8.20;99.90
2579;DHT22;1299;48.282;14.398;2023-12-14T16:43:13;8.10;99.90
2579;DHT22;1299;48.282;14.398;2023-12-14T16:46:00;8.10;99.90
2579;DHT22;1299;48.282;14.398;2023-12-14T16:48:28;8.20;99.90
2579;DHT22;1299;48.282;14.398;2023-12-14T16:51:08;8.10;99.90
2579;DHT22;1299;48.282;14.398;2023-12-14T16:53:48;8.00;99.90
2579;DHT22;1299;48.282;14.398;2023-12-14T16:56:17;8.10;99.90
2579;DHT22;1299;48.282;14.398;2023-12-14T16:59:03;8.10;99.90
2579;DHT22;1299;48.282;14.398;2023-12-14T17:01:31;8.10;99.90
2579;DHT22;1299;48.282;14.398;2023-12-14T17:03:58;8.10;99.90
2579;DHT22;1299;48.282;14.398;2023-12-14T17:06:27;8.10;99.90
2579;DHT22;1299;48.282;14.398;2023-12-14T17:08:55;8.20;99.90
2579;DHT22;1299;48.282;14.398;2023-12-14T17:14:51;8.10;99.90
2579;DHT22;1299;48.282;14.398;2023-12-14T17:17:21;8.20;99.90